Time;durP1;ratioP1;P1;durP2;ratioP2;P2;SDS_P1;SDS_P2;PMS_P1;PMS_P2;Temp;Humidity;BMP_temperature;BMP_pressure;BME280_temperature;BME280_humidity;BME280_pressure;Samples;Min_cycle;Max_cycle;Signal;HPM_P1;HPM_P2
2022/08/01 00:01:34;;;;;;;3.70;2.50;;;;;;;;;;4973323;28;20570;-80
2022/08/01 00:04:00;;;;;;;6.75;2.90;;;;;;;;;;4977860;28;20081;-80
2022/08/01 00:06:25;;;;;;;4.22;2.60;;;;;;;;;;4980624;28;20149;-80
2022/08/01 00:08:50;;;;;;;3.30;2.30;;;;;;;;;;4975090;28;20371;-80
2022/08/01 00:11:16;;;;;;;4.05;2.50;;;;;;;;;;4976911;28;20058;-80
2022/08/01 00:13:41;;;;;;;4.47;2.30;;;;;;;;;;4980745;28;20030;-80
2022/08/01 00:16:07;;;;;;;4.45;2.50;;;;;;;;;;4970678;28;20128;-79
2022/08/01 00:18:32;;;;;;;4.90;2.55;;;;;;;;;;4976786;28;20508;-81
2022/08/01 00:20:58;;;;;;;5.35;2.60;;;;;;;;;;4976190;28;20038;-80
2022/08/01 00:23:23;;;;;;;3.47;2.30;;;;;;;;;;4988330;28;20495;-80
2022/08/01 00:25:48;;;;;;;3.97;2.30;;;;;;;;;;4986459;28;20038;-80
2022/08/01 00:28:14;;;;;;;4.47;2.42;;;;;;;;;;4975612;28;20043;-81
2022/08/01 00:30:39;;;;;;;4.82;2.85;;;;;;;;;;4976814;28;20635;-80
2022/08/01 00:33:05;;;;;;;4.60;2.58;;;;;;;;;;4976163;28;20045;-80
2022/08/01 00:35:30;;;;;;;4.30;2.50;;;;;;;;;;4969138;28;20168;-80
2022/08/01 00:37:55;;;;;;;4.57;2.60;;;;;;;;;;4964589;28;20045;-78
2022/08/01 00:40:21;;;;;;;4.15;2.22;;;;;;;;;;4979177;28;20036;-80
2022/08/01 00:42:47;;;;;;;4.72;2.35;;;;;;;;;;4982236;28;20073;-79
2022/08/01 00:45:12;;;;;;;5.63;2.50;;;;;;;;;;4980339;28;20391;-80
2022/08/01 00:47:38;;;;;;;5.15;2.70;;;;;;;;;;4975116;28;20151;-80
2022/08/01 00:50:04;;;;;;;3.60;2.17;;;;;;;;;;4984672;28;20030;-80
2022/08/01 00:52:30;;;;;;;4.00;2.60;;;;;;;;;;4968587;28;20031;-81
2022/08/01 00:54:56;;;;;;;4.30;2.72;;;;;;;;;;4983500;28;20040;-80
2022/08/01 00:57:21;;;;;;;3.38;2.40;;;;;;;;;;4983012;28;20057;-80
2022/08/01 00:59:47;;;;;;;4.38;2.70;;;;;;;;;;4995647;28;20066;-80
2022/08/01 01:02:12;;;;;;;4.75;2.70;;;;;;;;;;4975225;28;20425;-80
2022/08/01 01:04:38;;;;;;;4.25;2.47;;;;;;;;;;4964763;28;20031;-80
2022/08/01 01:07:21;;;;;;;4.53;2.58;;;;;;;;;;4965204;28;20114;-80
2022/08/01 01:09:58;;;;;;;3.97;2.83;;;;;;;;;;4991444;28;20037;-80
2022/08/01 01:12:37;;;;;;;3.80;2.53;;;;;;;;;;4969300;28;20102;-80
2022/08/01 01:15:15;;;;;;;4.57;2.50;;;;;;;;;;4986549;28;20042;-79
2022/08/01 01:17:48;;;;;;;;;;;;;;;;;;4989722;28;20057;-80
2022/08/01 01:20:14;;;;;;;5.28;2.53;;;;;;;;;;4958095;28;20271;-80
2022/08/01 01:22:46;;;;;;;4.43;2.63;;;;;;;;;;4967769;28;20030;-80
2022/08/01 01:25:36;;;;;;;3.92;2.72;;;;;;;;;;4976130;28;20127;-80
2022/08/01 01:28:05;;;;;;;4.28;2.60;;;;;;;;;;4983536;28;20038;-80
2022/08/01 01:30:32;;;;;;;4.75;2.80;;;;;;;;;;4975068;28;20061;-80
2022/08/01 01:33:00;;;;;;;4.22;2.70;;;;;;;;;;4981785;28;20030;-80
2022/08/01 01:35:27;;;;;;;3.97;3.00;;;;;;;;;;4966834;28;20153;-80
2022/08/01 01:37:58;;;;;;;4.75;2.80;;;;;;;;;;4982342;28;20334;-80
2022/08/01 01:40:24;;;;;;;5.88;2.83;;;;;;;;;;4991455;28;20036;-80
2022/08/01 01:42:51;;;;;;;5.82;2.53;;;;;;;;;;4990087;28;20870;-80
2022/08/01 01:45:18;;;;;;;4.95;2.88;;;;;;;;;;4967887;28;20084;-80
2022/08/01 01:47:44;;;;;;;3.95;2.85;;;;;;;;;;4975343;28;20536;-79
2022/08/01 01:50:11;;;;;;;5.72;2.80;;;;;;;;;;4971884;28;20030;-81
2022/08/01 01:52:38;;;;;;;;;;;;;;;;;;4974723;28;20045;-80
2022/08/01 01:55:06;;;;;;;4.30;2.95;;;;;;;;;;4957434;28;19945;-80
2022/08/01 01:57:39;;;;;;;4.38;2.80;;;;;;;;;;4987452;28;20556;-79
2022/08/01 02:00:07;;;;;;;5.70;3.15;;;;;;;;;;4980845;28;20453;-79
2022/08/01 02:02:33;;;;;;;4.70;3.08;;;;;;;;;;4974468;28;20045;-79
2022/08/01 02:04:59;;;;;;;4.38;2.92;;;;;;;;;;4985108;28;20493;-80
2022/08/01 02:07:25;;;;;;;4.20;2.90;;;;;;;;;;4983547;28;20084;-80
2022/08/01 02:09:51;;;;;;;6.82;3.20;;;;;;;;;;4975980;28;20110;-80
2022/08/01 02:12:17;;;;;;;3.95;2.75;;;;;;;;;;4973866;28;20473;-80
2022/08/01 02:14:45;;;;;;;4.35;3.00;;;;;;;;;;4972699;28;20079;-80
2022/08/01 02:17:11;;;;;;;4.78;3.05;;;;;;;;;;4971609;28;20084;-80
2022/08/01 02:19:37;;;;;;;4.43;3.05;;;;;;;;;;4970886;28;20084;-80
2022/08/01 02:22:09;;;;;;;4.78;3.08;;;;;;;;;;4972214;28;20486;-79
2022/08/01 02:24:42;;;;;;;5.38;3.10;;;;;;;;;;4980283;28;20042;-80
2022/08/01 02:27:12;;;;;;;5.70;3.13;;;;;;;;;;4979469;28;20124;-80
2022/08/01 02:30:07;;;;;;;4.53;3.00;;;;;;;;;;4974266;28;20445;-80
2022/08/01 02:32:38;;;;;;;4.65;2.95;;;;;;;;;;4967139;28;20077;-80
2022/08/01 02:35:07;;;;;;;6.03;3.10;;;;;;;;;;4992220;28;20045;-80
2022/08/01 02:37:34;;;;;;;4.35;2.88;;;;;;;;;;4966563;28;20058;-80
2022/08/01 02:40:00;;;;;;;4.65;3.30;;;;;;;;;;4984503;28;20460;-80
2022/08/01 02:42:27;;;;;;;6.38;2.97;;;;;;;;;;4987697;28;20385;-80
2022/08/01 02:44:53;;;;;;;6.38;3.53;;;;;;;;;;4988470;28;20402;-80
2022/08/01 02:47:20;;;;;;;5.03;3.10;;;;;;;;;;4983098;28;20092;-80
2022/08/01 02:49:47;;;;;;;5.50;3.25;;;;;;;;;;4982111;28;20524;-80
2022/08/01 02:52:15;;;;;;;4.15;2.88;;;;;;;;;;4978469;28;20232;-80
2022/08/01 02:54:41;;;;;;;5.72;3.38;;;;;;;;;;4985812;28;20037;-80
2022/08/01 02:57:08;;;;;;;3.95;2.80;;;;;;;;;;4984271;28;20062;-80
2022/08/01 02:59:37;;;;;;;4.60;3.20;;;;;;;;;;4982747;28;20613;-79
2022/08/01 03:02:04;;;;;;;5.38;3.22;;;;;;;;;;4974757;28;20030;-79
2022/08/01 03:04:30;;;;;;;;;;;;;;;;;;4986950;28;20092;-79
2022/08/01 03:06:58;;;;;;;4.60;3.17;;;;;;;;;;4955970;28;20288;-80
2022/08/01 03:09:25;;;;;;;4.60;3.40;;;;;;;;;;4972381;28;20038;-80
2022/08/01 03:11:51;;;;;;;4.40;3.17;;;;;;;;;;4979695;28;20049;-80
2022/08/01 03:14:17;;;;;;;4.70;3.22;;;;;;;;;;4967712;28;20406;-79
2022/08/01 03:16:44;;;;;;;4.18;3.35;;;;;;;;;;4972222;28;20034;-80
2022/08/01 03:19:11;;;;;;;5.00;3.17;;;;;;;;;;4963348;28;20030;-80
2022/08/01 03:21:38;;;;;;;4.55;2.95;;;;;;;;;;4983056;28;20030;-78
2022/08/01 03:24:04;;;;;;;5.47;3.20;;;;;;;;;;4976536;28;20039;-78
2022/08/01 03:26:31;;;;;;;5.22;3.33;;;;;;;;;;4970251;28;20097;-79
2022/08/01 03:29:06;;;;;;;4.18;3.10;;;;;;;;;;4982317;28;20038;-78
2022/08/01 03:31:34;;;;;;;4.40;3.22;;;;;;;;;;4965397;28;20036;-78
2022/08/01 03:34:00;;;;;;;4.68;3.00;;;;;;;;;;4959849;28;20046;-78
2022/08/01 03:36:26;;;;;;;4.68;3.00;;;;;;;;;;4985606;28;20030;-79
2022/08/01 03:38:56;;;;;;;4.00;2.63;;;;;;;;;;4963605;28;20026;-79
2022/08/01 03:41:25;;;;;;;4.28;3.17;;;;;;;;;;4985055;28;20041;-78
2022/08/01 03:43:59;;;;;;;3.85;2.92;;;;;;;;;;4971508;28;20045;-78
2022/08/01 03:46:43;;;;;;;4.40;3.00;;;;;;;;;;4983085;28;20097;-78
2022/08/01 03:49:17;;;;;;;5.53;3.03;;;;;;;;;;4979371;28;20072;-79
2022/08/01 03:51:45;;;;;;;3.97;2.85;;;;;;;;;;4962666;28;20125;-78
2022/08/01 03:54:10;;;;;;;4.43;2.85;;;;;;;;;;4993083;28;20042;-79
2022/08/01 03:56:36;;;;;;;4.00;2.63;;;;;;;;;;4964530;28;20030;-78
2022/08/01 03:59:03;;;;;;;5.32;3.08;;;;;;;;;;4982856;28;20454;-79
2022/08/01 04:01:31;;;;;;;4.50;3.17;;;;;;;;;;4984459;28;20034;-78
2022/08/01 04:03:58;;;;;;;4.38;2.92;;;;;;;;;;4970242;28;20038;-78
2022/08/01 04:06:23;;;;;;;6.60;3.50;;;;;;;;;;4983828;28;20033;-79
2022/08/01 04:08:55;;;;;;;4.57;2.92;;;;;;;;;;4967536;28;20510;-78
2022/08/01 04:11:21;;;;;;;5.32;3.20;;;;;;;;;;4968736;28;20074;-79
2022/08/01 04:13:48;;;;;;;6.25;4.10;;;;;;;;;;4986096;28;20043;-79
2022/08/01 04:16:13;;;;;;;5.60;3.70;;;;;;;;;;4962960;28;20392;-78
2022/08/01 04:18:39;;;;;;;5.88;3.58;;;;;;;;;;4974583;28;20096;-78
2022/08/01 04:21:04;;;;;;;5.35;3.65;;;;;;;;;;4967513;28;20034;-79
2022/08/01 04:23:31;;;;;;;6.53;4.28;;;;;;;;;;4987099;28;20479;-79
2022/08/01 04:25:57;;;;;;;5.78;3.50;;;;;;;;;;4970579;28;20035;-79
2022/08/01 04:28:23;;;;;;;5.82;4.03;;;;;;;;;;4977896;28;20030;-79
2022/08/01 04:30:50;;;;;;;7.00;3.95;;;;;;;;;;4970976;28;20030;-78
2022/08/01 04:33:17;;;;;;;6.35;4.28;;;;;;;;;;4972944;28;20414;-79
2022/08/01 04:35:46;;;;;;;7.07;4.18;;;;;;;;;;4978575;28;20034;-79
2022/08/01 04:38:16;;;;;;;6.25;4.43;;;;;;;;;;4966374;28;20038;-79
2022/08/01 04:40:42;;;;;;;6.15;4.05;;;;;;;;;;4964949;28;20058;-79
2022/08/01 04:43:08;;;;;;;6.63;3.92;;;;;;;;;;4977581;28;20086;-78
2022/08/01 04:45:34;;;;;;;7.25;3.92;;;;;;;;;;4970589;28;20418;-79
2022/08/01 04:47:59;;;;;;;7.10;5.20;;;;;;;;;;4983878;28;20117;-78
2022/08/01 04:50:25;;;;;;;7.60;4.82;;;;;;;;;;4963035;28;20046;-78
2022/08/01 04:52:51;;;;;;;6.80;4.43;;;;;;;;;;4963803;28;20042;-78
2022/08/01 04:55:17;;;;;;;6.35;4.20;;;;;;;;;;4978295;28;20058;-79
2022/08/01 04:57:45;;;;;;;5.60;4.00;;;;;;;;;;4970315;28;20031;-78
2022/08/01 05:00:11;;;;;;;6.82;4.15;;;;;;;;;;4973199;28;20034;-79
2022/08/01 05:02:36;;;;;;;5.43;3.75;;;;;;;;;;4962175;28;20034;-78
2022/08/01 05:05:02;;;;;;;6.28;4.10;;;;;;;;;;4979022;28;20043;-78
2022/08/01 05:07:27;;;;;;;7.20;4.50;;;;;;;;;;4978704;28;20030;-78
2022/08/01 05:09:54;;;;;;;7.90;5.05;;;;;;;;;;4964879;28;20038;-78
2022/08/01 05:12:20;;;;;;;7.63;5.47;;;;;;;;;;4976704;28;20051;-78
2022/08/01 05:14:46;;;;;;;8.13;5.60;;;;;;;;;;4978572;28;20836;-78
2022/08/01 05:17:13;;;;;;;7.95;4.65;;;;;;;;;;4991619;28;20045;-78
2022/08/01 05:19:39;;;;;;;6.43;4.40;;;;;;;;;;4980064;28;20037;-78
2022/08/01 05:22:07;;;;;;;6.82;4.22;;;;;;;;;;4967340;28;20034;-78
2022/08/01 05:24:35;;;;;;;6.50;4.80;;;;;;;;;;4966500;28;20097;-78
2022/08/01 05:27:01;;;;;;;6.03;4.35;;;;;;;;;;4975363;28;20091;-78
2022/08/01 05:29:27;;;;;;;5.68;4.10;;;;;;;;;;4971930;28;20514;-78
2022/08/01 05:31:56;;;;;;;6.50;4.00;;;;;;;;;;4971985;28;20030;-78
2022/08/01 05:34:23;;;;;;;6.30;4.30;;;;;;;;;;4970571;28;20081;-78
2022/08/01 05:36:48;;;;;;;5.40;3.65;;;;;;;;;;4964997;28;20427;-78
2022/08/01 05:39:14;;;;;;;7.18;3.92;;;;;;;;;;4968702;28;20129;-78
2022/08/01 05:41:39;;;;;;;6.50;3.83;;;;;;;;;;4972352;28;20517;-79
2022/08/01 05:44:05;;;;;;;5.57;3.75;;;;;;;;;;4968614;28;20128;-79
2022/08/01 05:46:31;;;;;;;4.68;3.38;;;;;;;;;;4976764;28;20030;-79
2022/08/01 05:48:58;;;;;;;4.35;3.20;;;;;;;;;;4976987;28;20403;-79
2022/08/01 05:51:23;;;;;;;5.93;3.10;;;;;;;;;;4980407;28;20033;-79
2022/08/01 05:53:48;;;;;;;4.00;2.60;;;;;;;;;;4973854;28;20030;-79
2022/08/01 05:56:14;;;;;;;4.40;3.20;;;;;;;;;;4961682;28;20045;-79
2022/08/01 05:58:39;;;;;;;5.00;3.30;;;;;;;;;;4972506;28;20405;-79
2022/08/01 06:01:05;;;;;;;3.97;2.75;;;;;;;;;;4970679;28;20800;-79
2022/08/01 06:03:31;;;;;;;4.68;3.10;;;;;;;;;;4983399;28;20511;-79
2022/08/01 06:05:57;;;;;;;5.65;3.20;;;;;;;;;;4970404;28;20105;-79
2022/08/01 06:08:22;;;;;;;4.55;2.92;;;;;;;;;;4979115;28;20034;-79
2022/08/01 06:10:48;;;;;;;3.90;2.80;;;;;;;;;;4986112;28;20046;-79
2022/08/01 06:13:14;;;;;;;4.72;2.97;;;;;;;;;;4970470;28;20053;-79
2022/08/01 06:15:39;;;;;;;3.70;2.50;;;;;;;;;;4982003;28;20030;-79
2022/08/01 06:18:04;;;;;;;4.70;2.97;;;;;;;;;;4974721;28;20508;-78
2022/08/01 06:20:30;;;;;;;6.15;2.75;;;;;;;;;;5002215;28;20109;-79
2022/08/01 06:22:55;;;;;;;3.90;2.33;;;;;;;;;;4988688;28;20077;-79
2022/08/01 06:25:21;;;;;;;5.47;2.20;;;;;;;;;;4974122;28;20068;-78
2022/08/01 06:27:47;;;;;;;4.13;2.47;;;;;;;;;;4981423;28;20081;-79
2022/08/01 06:30:13;;;;;;;4.22;2.20;;;;;;;;;;4977263;28;20107;-79
2022/08/01 06:32:38;;;;;;;4.28;2.10;;;;;;;;;;4978370;28;20437;-79
2022/08/01 06:35:04;;;;;;;3.33;2.22;;;;;;;;;;4989081;28;20065;-79
2022/08/01 06:37:30;;;;;;;6.35;2.47;;;;;;;;;;4981146;28;20038;-80
2022/08/01 06:40:00;;;;;;;4.40;2.15;;;;;;;;;;4974883;28;20042;-79
2022/08/01 06:42:25;;;;;;;4.18;2.03;;;;;;;;;;4981935;28;20103;-79
2022/08/01 06:44:50;;;;;;;4.47;2.50;;;;;;;;;;4983725;28;20038;-78
2022/08/01 06:47:16;;;;;;;3.30;2.10;;;;;;;;;;4983231;28;20088;-79
2022/08/01 06:49:41;;;;;;;3.72;1.90;;;;;;;;;;4977943;28;20038;-79
2022/08/01 06:52:07;;;;;;;4.35;2.10;;;;;;;;;;4964268;28;20371;-79
2022/08/01 06:54:32;;;;;;;3.22;1.80;;;;;;;;;;4987875;28;20106;-79
2022/08/01 06:56:57;;;;;;;3.53;2.05;;;;;;;;;;4981836;28;20141;-78
2022/08/01 06:59:23;;;;;;;2.95;1.60;;;;;;;;;;4973756;28;20077;-79
2022/08/01 07:01:48;;;;;;;3.92;1.92;;;;;;;;;;4974434;28;20516;-78
2022/08/01 07:04:13;;;;;;;3.00;1.80;;;;;;;;;;4975058;28;20054;-78
2022/08/01 07:06:39;;;;;;;3.20;1.73;;;;;;;;;;4978544;28;20050;-79
2022/08/01 07:09:04;;;;;;;3.25;1.60;;;;;;;;;;4976415;28;20069;-79
2022/08/01 07:11:30;;;;;;;3.80;2.20;;;;;;;;;;4973589;28;20060;-78
2022/08/01 07:13:56;;;;;;;3.80;1.88;;;;;;;;;;4973337;28;20093;-79
2022/08/01 07:16:22;;;;;;;3.60;2.33;;;;;;;;;;4973392;28;20385;-78
2022/08/01 07:18:47;;;;;;;2.92;1.73;;;;;;;;;;4978257;28;20065;-78
2022/08/01 07:21:13;;;;;;;4.30;2.00;;;;;;;;;;4981910;28;20029;-78
2022/08/01 07:23:38;;;;;;;3.97;1.70;;;;;;;;;;4972635;28;20038;-78
2022/08/01 07:26:03;;;;;;;3.38;1.80;;;;;;;;;;4977669;28;20038;-78
2022/08/01 07:28:30;;;;;;;3.00;1.60;;;;;;;;;;4983048;28;20041;-79
2022/08/01 07:30:55;;;;;;;3.50;1.80;;;;;;;;;;4980415;28;20040;-78
2022/08/01 07:33:22;;;;;;;3.30;1.90;;;;;;;;;;4970840;28;20027;-78
2022/08/01 07:35:47;;;;;;;3.90;2.35;;;;;;;;;;4977824;28;20034;-77
2022/08/01 07:38:14;;;;;;;4.10;1.90;;;;;;;;;;4984686;28;20033;-77
2022/08/01 07:40:40;;;;;;;3.90;2.30;;;;;;;;;;5000223;28;20030;-78
2022/08/01 07:43:05;;;;;;;4.10;2.33;;;;;;;;;;4983672;28;20801;-77
2022/08/01 07:45:31;;;;;;;4.15;2.20;;;;;;;;;;4969333;28;20041;-77
2022/08/01 07:47:56;;;;;;;4.18;2.20;;;;;;;;;;4976185;28;20042;-79
2022/08/01 07:50:22;;;;;;;3.42;2.08;;;;;;;;;;4984155;28;20030;-78
2022/08/01 07:52:47;;;;;;;3.15;1.98;;;;;;;;;;4965073;28;20049;-78
2022/08/01 07:55:12;;;;;;;3.60;2.20;;;;;;;;;;4956380;28;20038;-78
2022/08/01 07:57:38;;;;;;;3.97;2.20;;;;;;;;;;4980245;28;20058;-78
2022/08/01 08:00:06;;;;;;;4.30;2.45;;;;;;;;;;4973203;28;20046;-79
2022/08/01 08:02:31;;;;;;;;;;;;;;;;;;4970053;28;20034;-78
2022/08/01 08:04:56;;;;;;;4.32;2.65;;;;;;;;;;4967035;28;19918;-78
2022/08/01 08:07:22;;;;;;;5.00;3.35;;;;;;;;;;4973116;28;20038;-78
2022/08/01 08:09:47;;;;;;;5.00;2.97;;;;;;;;;;4980781;28;20521;-78
2022/08/01 08:12:12;;;;;;;5.38;3.35;;;;;;;;;;4972112;28;20038;-79
2022/08/01 08:14:38;;;;;;;7.28;3.47;;;;;;;;;;4977155;28;20097;-78
2022/08/01 08:17:05;;;;;;;5.22;3.38;;;;;;;;;;4964218;28;20378;-78
2022/08/01 08:19:33;;;;;;;5.47;3.45;;;;;;;;;;4979150;28;20041;-79
2022/08/01 08:21:58;;;;;;;4.93;2.95;;;;;;;;;;5000489;28;20046;-78
2022/08/01 08:24:25;;;;;;;4.88;2.42;;;;;;;;;;4974076;28;20183;-77
2022/08/01 08:26:56;;;;;;;3.83;2.30;;;;;;;;;;4987966;28;20414;-78
2022/08/01 08:29:22;;;;;;;4.65;2.33;;;;;;;;;;4981901;28;20486;-78
2022/08/01 08:31:47;;;;;;;4.57;2.33;;;;;;;;;;4972271;28;20038;-78
2022/08/01 08:34:13;;;;;;;3.10;1.90;;;;;;;;;;4985617;28;20040;-79
2022/08/01 08:36:59;;;;;;;2.40;1.38;;;;;;;;;;4980255;28;20125;-78
2022/08/01 08:39:25;;;;;;;2.80;1.40;;;;;;;;;;4900001;29;20038;-79
2022/08/01 08:41:53;;;;;;;3.53;1.50;;;;;;;;;;4901689;29;20052;-79
2022/08/01 08:44:19;;;;;;;3.25;1.50;;;;;;;;;;4897032;29;20063;-79
2022/08/01 08:46:50;;;;;;;2.72;1.25;;;;;;;;;;4887029;29;20052;-78
2022/08/01 08:49:19;;;;;;;4.72;1.67;;;;;;;;;;4897042;29;20508;-78
2022/08/01 08:51:48;;;;;;;2.78;0.80;;;;;;;;;;4901017;29;20530;-79
2022/08/01 08:54:14;;;;;;;2.50;1.30;;;;;;;;;;4901194;29;20078;-79
2022/08/01 08:56:40;;;;;;;4.70;1.40;;;;;;;;;;4903817;29;20065;-79
2022/08/01 08:59:05;;;;;;;2.75;1.00;;;;;;;;;;4887853;29;20108;-79
2022/08/01 09:01:33;;;;;;;1.73;0.70;;;;;;;;;;4899325;29;20032;-80
2022/08/01 09:03:59;;;;;;;2.38;0.80;;;;;;;;;;4879499;29;20569;-77
2022/08/01 09:06:25;;;;;;;1.70;0.82;;;;;;;;;;4886707;29;20040;-77
2022/08/01 09:08:50;;;;;;;1.73;0.80;;;;;;;;;;4899071;29;20048;-78
2022/08/01 09:11:16;;;;;;;1.88;0.90;;;;;;;;;;4899728;29;20044;-80
2022/08/01 09:13:41;;;;;;;2.22;0.95;;;;;;;;;;4905305;29;20032;-79
2022/08/01 09:16:17;;;;;;;1.88;1.00;;;;;;;;;;4917219;28;20521;-79
2022/08/01 09:18:44;;;;;;;1.95;0.85;;;;;;;;;;4983227;28;20038;-79
2022/08/01 09:21:09;;;;;;;1.65;0.85;;;;;;;;;;4985700;28;20125;-79
2022/08/01 09:23:38;;;;;;;2.13;1.02;;;;;;;;;;4993199;28;20129;-78
2022/08/01 09:26:04;;;;;;;2.50;1.20;;;;;;;;;;4983547;28;20038;-78
2022/08/01 09:28:30;;;;;;;2.53;1.15;;;;;;;;;;4985746;28;20038;-79
2022/08/01 09:30:57;;;;;;;5.85;1.20;;;;;;;;;;4992854;28;20096;-78
2022/08/01 09:33:22;;;;;;;2.20;1.00;;;;;;;;;;4975993;28;20117;-78
2022/08/01 09:35:55;;;;;;;3.17;1.02;;;;;;;;;;4987069;28;20146;-78
2022/08/01 09:38:23;;;;;;;3.05;1.10;;;;;;;;;;4981931;28;20902;-79
2022/08/01 09:40:55;;;;;;;2.22;1.02;;;;;;;;;;4966853;28;20049;-81
2022/08/01 09:43:22;;;;;;;2.35;1.10;;;;;;;;;;4979054;28;20038;-81
2022/08/01 09:45:48;;;;;;;1.88;0.95;;;;;;;;;;4974248;28;20030;-81
2022/08/01 09:48:15;;;;;;;2.67;1.08;;;;;;;;;;4967021;28;20038;-80
2022/08/01 09:50:46;;;;;;;1.80;0.82;;;;;;;;;;4975094;28;20427;-82
2022/08/01 09:53:13;;;;;;;1.60;0.90;;;;;;;;;;4964243;28;20038;-79
2022/08/01 09:55:39;;;;;;;3.35;1.00;;;;;;;;;;4988976;28;20029;-78
2022/08/01 09:58:05;;;;;;;2.83;1.07;;;;;;;;;;5001822;28;20034;-78
2022/08/01 10:00:32;;;;;;;3.30;1.10;;;;;;;;;;4989640;28;20858;-78
2022/08/01 10:02:58;;;;;;;1.95;1.08;;;;;;;;;;4979216;28;20494;-79
2022/08/01 10:05:34;;;;;;;2.47;0.93;;;;;;;;;;4963705;28;20033;-78
2022/08/01 10:08:03;;;;;;;2.72;0.85;;;;;;;;;;4976343;28;20382;-77
2022/08/01 10:10:29;;;;;;;1.85;0.88;;;;;;;;;;4982588;28;20041;-77
2022/08/01 10:12:56;;;;;;;2.33;1.00;;;;;;;;;;4983019;28;20042;-77
2022/08/01 10:15:24;;;;;;;2.78;1.00;;;;;;;;;;5002490;28;20107;-77
2022/08/01 10:17:54;;;;;;;1.60;0.88;;;;;;;;;;4988276;28;20030;-77
2022/08/01 10:20:23;;;;;;;2.10;0.90;;;;;;;;;;4980662;28;20045;-78
2022/08/01 10:22:50;;;;;;;2.92;1.00;;;;;;;;;;4984740;28;20037;-78
2022/08/01 10:25:17;;;;;;;2.00;0.80;;;;;;;;;;4987443;28;20038;-79
2022/08/01 10:27:45;;;;;;;3.08;0.82;;;;;;;;;;4983560;28;20543;-78
2022/08/01 10:30:11;;;;;;;7.75;0.80;;;;;;;;;;4975584;28;20115;-78
2022/08/01 10:32:36;;;;;;;1.95;0.68;;;;;;;;;;4958706;28;20073;-78
2022/08/01 10:35:04;;;;;;;2.13;0.82;;;;;;;;;;4977238;28;20935;-78
2022/08/01 10:37:30;;;;;;;1.65;0.80;;;;;;;;;;4992428;28;20572;-78
2022/08/01 10:39:56;;;;;;;2.47;0.80;;;;;;;;;;4974067;28;20145;-78
2022/08/01 10:42:22;;;;;;;1.70;0.77;;;;;;;;;;4972523;28;20081;-79
2022/08/01 10:44:49;;;;;;;1.92;1.00;;;;;;;;;;4969039;28;20510;-79
2022/08/01 10:47:18;;;;;;;1.58;0.70;;;;;;;;;;4954518;28;20108;-77
2022/08/01 10:50:17;;;;;;;1.63;0.77;;;;;;;;;;4963211;28;20027;-77
2022/08/01 10:53:06;;;;;;;2.97;0.82;;;;;;;;;;4977921;28;20128;-77
2022/08/01 10:56:03;;;;;;;3.15;0.90;;;;;;;;;;4974479;28;20041;-77
2022/08/01 10:58:32;;;;;;;1.50;0.70;;;;;;;;;;4973853;28;20481;-77
2022/08/01 11:01:26;;;;;;;1.63;0.70;;;;;;;;;;4979169;28;20042;-77
2022/08/01 11:04:00;;;;;;;1.48;0.70;;;;;;;;;;4983730;28;20494;-77
2022/08/01 11:06:39;;;;;;;1.30;0.50;;;;;;;;;;4984326;28;20085;-77
2022/08/01 11:09:15;;;;;;;1.98;0.60;;;;;;;;;;4970395;28;20037;-78
2022/08/01 11:11:57;;;;;;;1.87;0.90;;;;;;;;;;4977582;28;20072;-78
2022/08/01 11:14:22;;;;;;;1.85;0.77;;;;;;;;;;4980220;28;20085;-78
2022/08/01 11:16:48;;;;;;;2.15;0.80;;;;;;;;;;4968086;28;20034;-78
2022/08/01 11:19:13;;;;;;;1.63;0.73;;;;;;;;;;4960909;28;20042;-77
2022/08/01 11:22:02;;;;;;;1.98;0.70;;;;;;;;;;4973443;28;20030;-78
2022/08/01 11:24:45;;;;;;;1.88;0.70;;;;;;;;;;4989151;28;20045;-79
2022/08/01 11:27:22;;;;;;;2.22;0.80;;;;;;;;;;4999878;28;20052;-77
2022/08/01 11:30:09;;;;;;;1.67;0.60;;;;;;;;;;4982614;28;20514;-78
2022/08/01 11:32:51;;;;;;;2.25;0.80;;;;;;;;;;4995926;28;20106;-78
2022/08/01 11:35:38;;;;;;;1.30;0.70;;;;;;;;;;4982249;28;20397;-77
2022/08/01 11:38:28;;;;;;;;;;;;;;;;;;4980618;28;20062;-78
2022/08/01 11:41:22;;;;;;;2.15;0.90;;;;;;;;;;4998425;28;19945;-78
2022/08/01 11:44:05;;;;;;;2.17;0.82;;;;;;;;;;4986437;28;20041;-77
2022/08/01 11:46:52;;;;;;;1.63;0.80;;;;;;;;;;4973927;28;20052;-78
2022/08/01 11:49:36;;;;;;;1.77;0.63;;;;;;;;;;4998698;28;20030;-78
2022/08/01 11:52:17;;;;;;;1.90;0.80;;;;;;;;;;4988369;28;20045;-77
2022/08/01 11:54:51;;;;;;;2.42;0.80;;;;;;;;;;4989687;28;20470;-78
2022/08/01 11:57:24;;;;;;;1.73;0.80;;;;;;;;;;4980012;28;20039;-78
2022/08/01 11:59:55;;;;;;;2.10;0.73;;;;;;;;;;4973022;28;20494;-77
2022/08/01 12:02:31;;;;;;;3.90;0.80;;;;;;;;;;4988244;28;20042;-78
2022/08/01 12:05:00;;;;;;;3.13;0.75;;;;;;;;;;4974308;28;20366;-78
2022/08/01 12:07:28;;;;;;;2.08;0.75;;;;;;;;;;4982072;28;20433;-77
2022/08/01 12:10:00;;;;;;;3.67;1.05;;;;;;;;;;4974139;28;20030;-77
2022/08/01 12:12:26;;;;;;;1.10;0.55;;;;;;;;;;5000195;28;20449;-77
2022/08/01 12:14:54;;;;;;;1.65;0.80;;;;;;;;;;4977674;28;20049;-77
2022/08/01 12:17:21;;;;;;;1.58;0.77;;;;;;;;;;4983747;28;20042;-77
2022/08/01 12:19:49;;;;;;;1.55;0.60;;;;;;;;;;4984370;28;20367;-77
2022/08/01 12:22:14;;;;;;;4.18;0.88;;;;;;;;;;4967310;28;20034;-77
2022/08/01 12:24:42;;;;;;;3.58;1.00;;;;;;;;;;4978496;28;20041;-77
2022/08/01 12:27:12;;;;;;;1.48;0.60;;;;;;;;;;4981510;28;20441;-77
2022/08/01 12:29:40;;;;;;;2.15;0.70;;;;;;;;;;4981343;28;20124;-77
2022/08/01 12:32:25;;;;;;;1.30;0.60;;;;;;;;;;4983626;28;20426;-79
2022/08/01 12:34:52;;;;;;;1.33;0.50;;;;;;;;;;4977853;28;21588;-78
2022/08/01 12:37:18;;;;;;;1.65;0.60;;;;;;;;;;4975367;28;20509;-78
2022/08/01 12:39:44;;;;;;;2.08;0.57;;;;;;;;;;4983785;28;20034;-78
2022/08/01 12:42:10;;;;;;;1.63;0.68;;;;;;;;;;4977912;28;20448;-78
2022/08/01 12:44:36;;;;;;;1.25;0.60;;;;;;;;;;4987449;28;20034;-78
2022/08/01 12:47:03;;;;;;;2.72;0.70;;;;;;;;;;4990672;28;20053;-77
2022/08/01 12:49:29;;;;;;;0.88;0.50;;;;;;;;;;4976380;28;20031;-77
2022/08/01 12:51:54;;;;;;;1.35;0.70;;;;;;;;;;4985384;28;20034;-77
2022/08/01 12:54:20;;;;;;;2.33;0.93;;;;;;;;;;4971386;28;20046;-78
2022/08/01 12:56:45;;;;;;;1.52;0.60;;;;;;;;;;4978146;28;20478;-77
2022/08/01 12:59:27;;;;;;;1.23;0.50;;;;;;;;;;4969788;28;20038;-77
2022/08/01 13:01:55;;;;;;;1.55;0.60;;;;;;;;;;4992652;28;20038;-78
2022/08/01 13:04:22;;;;;;;1.00;0.50;;;;;;;;;;4976570;28;20066;-78
2022/08/01 13:06:52;;;;;;;1.08;0.50;;;;;;;;;;4975944;28;20026;-78
2022/08/01 13:09:18;;;;;;;1.58;0.60;;;;;;;;;;4982326;28;20410;-78
2022/08/01 13:11:43;;;;;;;3.58;0.50;;;;;;;;;;4968875;28;20054;-78
2022/08/01 13:14:11;;;;;;;3.15;0.60;;;;;;;;;;4979461;28;20046;-79
2022/08/01 13:16:47;;;;;;;1.20;0.43;;;;;;;;;;4977152;28;20070;-78
2022/08/01 13:19:13;;;;;;;1.48;0.50;;;;;;;;;;4978600;28;20376;-78
2022/08/01 13:21:38;;;;;;;1.02;0.50;;;;;;;;;;4986151;28;20042;-78
2022/08/01 13:24:09;;;;;;;1.27;0.40;;;;;;;;;;4963798;28;20379;-78
2022/08/01 13:26:41;;;;;;;0.90;0.50;;;;;;;;;;4990945;28;20057;-78
2022/08/01 13:29:07;;;;;;;3.35;0.70;;;;;;;;;;4990760;28;20085;-78
2022/08/01 13:31:34;;;;;;;1.75;0.45;;;;;;;;;;4973962;28;20041;-78
2022/08/01 13:34:00;;;;;;;0.80;0.40;;;;;;;;;;4989703;28;20494;-79
2022/08/01 13:36:30;;;;;;;1.35;0.55;;;;;;;;;;4978241;28;20121;-78
2022/08/01 13:41:40;;;;;;;1.52;0.30;;;;;;;;;;4972224;28;20101;-78
2022/08/01 13:44:10;;;;;;;1.02;0.40;;;;;;;;;;4978388;28;20042;-77
2022/08/01 13:46:38;;;;;;;0.60;0.30;;;;;;;;;;4951675;28;20045;-78
2022/08/01 13:49:04;;;;;;;1.13;0.47;;;;;;;;;;4977281;28;20069;-83
2022/08/01 13:51:30;;;;;;;3.03;0.60;;;;;;;;;;4974689;28;20034;-83
2022/08/01 13:53:55;;;;;;;2.50;0.40;;;;;;;;;;4967987;28;20049;-83
2022/08/01 13:56:20;;;;;;;1.98;0.40;;;;;;;;;;4969015;28;20109;-84
2022/08/01 13:58:46;;;;;;;2.22;0.52;;;;;;;;;;4974623;28;20491;-84
2022/08/01 14:01:12;;;;;;;2.67;0.50;;;;;;;;;;4954221;28;20414;-83
2022/08/01 14:03:37;;;;;;;1.33;0.40;;;;;;;;;;4971987;28;20043;-83
2022/08/01 14:06:03;;;;;;;1.00;0.13;;;;;;;;;;4986103;28;20038;-82
2022/08/01 14:08:28;;;;;;;0.63;0.20;;;;;;;;;;4980764;28;20042;-84
2022/08/01 14:10:56;;;;;;;1.25;0.30;;;;;;;;;;4977292;28;20026;-84
2022/08/01 14:13:22;;;;;;;1.77;0.28;;;;;;;;;;4969234;28;20049;-83
2022/08/01 14:15:48;;;;;;;3.00;0.38;;;;;;;;;;4961948;28;20487;-83
2022/08/01 14:18:13;;;;;;;1.27;0.40;;;;;;;;;;4970457;28;20182;-85
2022/08/01 14:20:39;;;;;;;1.00;0.35;;;;;;;;;;4958828;28;20421;-84
2022/08/01 14:23:04;;;;;;;2.95;0.40;;;;;;;;;;4973015;28;20038;-81
2022/08/01 14:25:30;;;;;;;0.57;0.20;;;;;;;;;;4983474;28;20101;-85
2022/08/01 14:27:55;;;;;;;1.02;0.30;;;;;;;;;;4980065;28;20469;-82
2022/08/01 14:30:20;;;;;;;1.92;0.50;;;;;;;;;;4977259;28;20129;-85
2022/08/01 14:32:46;;;;;;;1.80;0.30;;;;;;;;;;4970447;28;20041;-85
2022/08/01 14:35:11;;;;;;;1.05;0.40;;;;;;;;;;4967582;28;20067;-84
2022/08/01 14:37:37;;;;;;;0.77;0.38;;;;;;;;;;4971912;28;20117;-86
2022/08/01 14:40:05;;;;;;;1.70;0.45;;;;;;;;;;4985471;28;20371;-84
2022/08/01 14:42:30;;;;;;;0.68;0.35;;;;;;;;;;4973539;28;20124;-82
2022/08/01 14:44:56;;;;;;;1.20;0.45;;;;;;;;;;4966662;28;20121;-84
2022/08/01 14:47:21;;;;;;;3.08;0.32;;;;;;;;;;4961161;28;20454;-84
2022/08/01 14:49:47;;;;;;;0.90;0.20;;;;;;;;;;4974624;28;20030;-84
2022/08/01 14:52:15;;;;;;;1.48;0.40;;;;;;;;;;4957826;28;20045;-85
2022/08/01 14:54:40;;;;;;;0.60;0.30;;;;;;;;;;4977745;28;20030;-83